Sheridan, IN (46069)

6:59 AM EDT on July 28, 2015 (GMT -0400)
1200 E 900 N | | Change Station
CLOSE
Current Station
Personal Weather Station
Location: Sheridan, IN
Elevation: 948 ft
Nearby Weather Stations

Elev 948 ft 40.17 °N, 86.24 °W | Updated 10 minutes ago

Clear
Clear
68.4 °F
Feels Like 68.4 °F
N
0.0
Wind Variable Wind from WNW

Today
High -- | Low -- °F
--% Chance of Precip.
Yesterday
High -- | Low -- °F
Precip. -- in
6:39 AM 9:03 PM
Waxing Gibbous, 89% visible
Pressure 30.00 in
Visibility 3.0 miles
Clouds Clear
Dew Point 68 °F
Humidity 99%
Rainfall 0.00 in
Snow Depth Not available.
UV 0 out of 12
Pollen 6.00 out of 12
Air Quality Not available.
Flu Activity Not available.
METAR KTYQ 281035Z AUTO 00000KT 3SM BR CLR 22/20 A3000 RMK AO2 T02170201

More Conditions Fewer Conditions

Pressure 30.00 in
Visibility 3.0 miles
Clouds Clear
Dew Point 68 °F
Humidity 99%
Rainfall 0.00 in
Snow Depth Not available.
UV 0 out of 12
Pollen 6.00 out of 12
Air Quality Not available.
Flu Activity Not available.
METAR KTYQ 281035Z AUTO 00000KT 3SM BR CLR 22/20 A3000 RMK AO2 T02170201

More Conditions Fewer Conditions

10-Day Weather Forecast

×

Almanac

Astronomy

Jul. 28, 2015 Rise Set
Actual Time
Civil Twilight
Nautical Twilight
Astronomical Twilight
Moon
Length of Visible Light
Length of Day
Tomorrow will be .
, % of the Moon is Illuminated

Today's Extremes

State Highs State Lows

Community

WunderPhotos

Upload Photos

1,841,802 photos uploaded!

WunderBlogs® & News

Nearby

Air Quality

  Air Quality AQ Index Pollutant
Not available.

Snow Depth

Station Depth Elevation

Earthquake Activity

City Distance Mag. Time & Date
Minimum magnitude displayed is 2.5.

Coastal Water Temperatures

Place Temperature

Stations

Nearby Weather Stations

Station Location Temp. Windchill Dew Point Humidity Wind Precip. Elev Updated Type